Terminal Aerodrome Forecast
Issued by NWS Wilmington, OH

Home | Current Version | Previous Version | Text Only | Print | Product List | Glossary On
Versions: 1 2 3 4 5 6 7 8 9 10 11 12 13 14 15
884
FTUS41 KILN 080736 AAA
TAFDAY
TAF AMD
KDAY 080736Z 0808/0906 21009KT P6SM -RA BKN035 OVC120
     FM081300 27011KT P6SM OVC035
     FM081800 28011KT 5SM -SHRA BR OVC025
     FM090200 27009KT P6SM -SN BKN015 OVC025=

USA.gov is the U.S. government's official web portal to all federal, state and local government web resources and services.